Time;durP1;ratioP1;P1;durP2;ratioP2;P2;SDS_P1;SDS_P2;PMS_P1;PMS_P2;Temp;Humidity;BMP_temperature;BMP_pressure;BME280_temperature;BME280_humidity;BME280_pressure;Samples;Min_cycle;Max_cycle;Signal;HPM_P1;HPM_P2
2024/03/26 00:01:35;;;;;;;;;;;;;;;6.41;84.66;100626.09;5050555;28;19925;-85
2024/03/26 00:04:00;;;;;;;;;;;;;;;6.38;84.29;100623.06;5051631;28;20526;-86
2024/03/26 00:06:25;;;;;;;;;;;;;;;6.35;84.36;100630.47;5053080;28;20663;-86
2024/03/26 00:08:51;;;;;;;;;;;;;;;6.31;84.58;100615.97;5052488;28;19925;-86
2024/03/26 00:11:16;;;;;;;;;;;;;;;6.28;84.09;100616.44;5053553;28;19920;-86
2024/03/26 00:13:41;;;;;;;;;;;;;;;6.24;84.07;100615.22;5052304;28;20569;-86
2024/03/26 00:16:06;;;;;;;;;;;;;;;6.20;84.18;100616.72;5049979;28;20388;-85
2024/03/26 00:18:31;;;;;;;;;;;;;;;6.17;83.77;100609.19;5053374;28;19928;-85
2024/03/26 00:20:57;;;;;;;;;;;;;;;6.14;84.25;100608.81;5053344;28;19940;-85
2024/03/26 00:23:22;;;;;;;;;;;;;;;6.10;84.24;100613.75;5053312;28;19974;-85
2024/03/26 00:25:48;;;;;;;;;;;;;;;6.06;83.80;100616.03;5052591;28;19931;-86
2024/03/26 00:28:14;;;;;;;;;;;;;;;6.01;83.55;100615.09;5053128;28;19925;-86
2024/03/26 00:30:39;;;;;;;;;;;;;;;5.98;83.54;100607.56;5052428;28;19924;-86
2024/03/26 00:33:04;;;;;;;;;;;;;;;5.94;83.68;100609.84;5052425;28;20393;-85
2024/03/26 00:35:33;;;;;;;;;;;;;;;5.92;83.18;100606.56;5052602;28;20457;-86
2024/03/26 00:37:58;;;;;;;;;;;;;;;5.89;83.49;100611.50;5051099;28;19963;-86
2024/03/26 00:40:24;;;;;;;;;;;;;;;5.86;83.36;100601.31;5052980;28;20031;-86
2024/03/26 00:42:49;;;;;;;;;;;;;;;5.83;83.42;100607.88;5051245;28;19973;-86
2024/03/26 00:45:14;;;;;;;;;;;;;;;5.80;83.23;100602.19;5052715;28;19964;-86
2024/03/26 00:47:39;;;;;;;;;;;;;;;5.78;83.14;100604.25;5049281;28;19925;-86
2024/03/26 00:50:05;;;;;;;;;;;;;;;5.74;83.03;100601.19;5052294;28;19925;-85
2024/03/26 00:52:30;;;;;;;;;;;;;;;5.71;83.18;100599.00;5052295;28;19924;-87
2024/03/26 00:54:55;;;;;;;;;;;;;;;5.68;83.16;100596.78;5052542;28;20019;-86
2024/03/26 00:57:21;;;;;;;;;;;;;;;5.64;83.29;100603.56;5052402;28;20126;-86
2024/03/26 00:59:46;;;;;;;;;;;;;;;5.62;83.54;100609.09;5052602;28;19958;-86
2024/03/26 01:02:11;;;;;;;;;;;;;;;5.58;83.55;100610.59;5051721;28;19968;-86
2024/03/26 01:04:36;;;;;;;;;;;;;;;5.56;83.66;100609.16;5051849;28;19943;-86
2024/03/26 01:07:01;;;;;;;;;;;;;;;5.54;84.06;100609.38;5050738;28;19925;-85
2024/03/26 01:09:27;;;;;;;;;;;;;;;5.52;83.61;100606.13;5052131;28;20053;-86
2024/03/26 01:11:52;;;;;;;;;;;;;;;5.49;84.00;100601.25;5051869;28;20282;-86
2024/03/26 01:14:17;;;;;;;;;;;;;;;5.45;83.25;100597.41;5052602;28;20029;-86
2024/03/26 01:16:42;;;;;;;;;;;;;;;5.41;83.07;100598.88;5052989;28;19962;-86
2024/03/26 01:19:08;;;;;;;;;;;;;;;5.36;83.48;100596.03;5050941;28;20017;-85
2024/03/26 01:21:33;;;;;;;;;;;;;;;5.32;83.38;100594.84;5050783;28;20395;-86
2024/03/26 01:23:58;;;;;;;;;;;;;;;5.28;83.64;100594.47;5050848;28;20673;-86
2024/03/26 01:26:23;;;;;;;;;;;;;;;5.27;84.04;100600.81;5052610;28;20732;-86
2024/03/26 01:28:49;;;;;;;;;;;;;;;5.26;84.10;100596.53;5052413;28;19960;-86
2024/03/26 01:31:14;;;;;;;;;;;;;;;5.25;83.99;100594.09;5051987;28;19928;-86
2024/03/26 01:33:40;;;;;;;;;;;;;;;5.26;84.14;100595.72;5052344;28;19978;-87
2024/03/26 01:36:05;;;;;;;;;;;;;;;5.25;84.26;100596.75;5052211;28;19928;-86
2024/03/26 01:38:30;;;;;;;;;;;;;;;5.25;84.39;100588.78;5052919;28;19926;-85
2024/03/26 01:40:56;;;;;;;;;;;;;;;5.23;84.45;100594.31;5053244;28;19936;-87
2024/03/26 01:43:21;;;;;;;;;;;;;;;5.19;83.91;100582.47;5053085;28;19924;-86
2024/03/26 01:45:46;;;;;;;;;;;;;;;5.17;84.31;100592.50;5054181;28;19951;-86
2024/03/26 01:48:11;;;;;;;;;;;;;;;5.16;84.36;100590.88;5053328;28;19921;-86
2024/03/26 01:50:37;;;;;;;;;;;;;;;5.14;84.42;100585.78;5053171;28;19924;-86
2024/03/26 01:53:04;;;;;;;;;;;;;;;5.13;84.45;100592.13;5053160;28;19936;-86
2024/03/26 01:55:29;;;;;;;;;;;;;;;5.12;84.70;100576.41;5052949;28;19916;-87
2024/03/26 01:57:54;;;;;;;;;;;;;;;5.11;84.77;100580.09;5052088;28;20477;-86
2024/03/26 02:00:23;;;;;;;;;;;;;;;5.10;85.11;100584.59;5055657;28;20392;-86
2024/03/26 02:02:48;;;;;;;;;;;;;;;5.10;84.88;100584.59;5054099;28;19967;-86
2024/03/26 02:05:13;;;;;;;;;;;;;;;5.09;85.33;100575.00;5052883;28;19964;-87
2024/03/26 02:07:39;;;;;;;;;;;;;;;5.10;85.25;100586.44;5054786;28;19990;-87
2024/03/26 02:10:05;;;;;;;;;;;;;;;5.10;84.96;100592.56;5053009;28;19991;-86
2024/03/26 02:12:30;;;;;;;;;;;;;;;5.09;84.97;100593.59;5053841;28;19973;-87
2024/03/26 02:14:55;;;;;;;;;;;;;;;5.09;85.69;100590.13;5054915;28;20293;-87
2024/03/26 02:17:20;;;;;;;;;;;;;;;5.09;85.47;100590.13;5055823;28;19916;-87
2024/03/26 02:19:46;;;;;;;;;;;;;;;5.06;85.03;100591.38;5055021;28;19924;-87
2024/03/26 02:22:11;;;;;;;;;;;;;;;5.05;84.77;100589.75;5053319;28;20335;-87
2024/03/26 02:24:36;;;;;;;;;;;;;;;5.01;84.89;100591.19;5053663;28;20047;-87
2024/03/26 02:27:01;;;;;;;;;;;;;;;4.97;84.50;100597.16;5054734;28;20004;-86
2024/03/26 02:29:27;;;;;;;;;;;;;;;4.95;84.60;100593.91;5054847;28;20008;-87
2024/03/26 02:31:52;;;;;;;;;;;;;;;4.90;84.47;100597.22;5055207;28;19965;-86
2024/03/26 02:34:17;;;;;;;;;;;;;;;4.87;84.48;100591.53;5055882;28;19931;-86
2024/03/26 02:36:42;;;;;;;;;;;;;;;4.84;84.44;100587.44;5053864;28;19924;-86
2024/03/26 02:39:08;;;;;;;;;;;;;;;4.80;84.58;100586.22;5052453;28;19916;-87
2024/03/26 02:41:34;;;;;;;;;;;;;;;4.77;84.88;100581.34;5053689;28;19921;-87
2024/03/26 02:43:59;;;;;;;;;;;;;;;4.74;85.02;100582.59;5054885;28;20381;-87
2024/03/26 02:46:24;;;;;;;;;;;;;;;4.71;85.33;100577.72;5054692;28;20032;-87
2024/03/26 02:48:49;;;;;;;;;;;;;;;4.68;84.92;100583.47;5053361;28;19975;-89
2024/03/26 02:51:14;;;;;;;;;;;;;;;4.68;84.96;100582.66;5055656;28;19921;-87
2024/03/26 02:53:40;;;;;;;;;;;;;;;4.67;85.18;100581.00;5053713;28;19925;-87
2024/03/26 02:56:05;;;;;;;;;;;;;;;4.66;85.35;100579.38;5053139;28;19924;-87
2024/03/26 02:58:30;;;;;;;;;;;;;;;4.63;85.23;100575.31;5055173;28;19917;-87
2024/03/26 03:01:05;;;;;;;;;;;;;;;4.61;85.45;100572.06;5054256;28;19925;-87
2024/03/26 03:03:31;;;;;;;;;;;;;;;4.62;86.22;100578.19;5057319;28;19927;-86
2024/03/26 03:05:56;;;;;;;;;;;;;;;4.64;86.31;100570.81;5053196;28;19978;-86
2024/03/26 03:08:21;;;;;;;;;;;;;;;4.65;86.52;100567.13;5055055;28;19920;-87
2024/03/26 03:10:46;;;;;;;;;;;;;;;4.67;86.81;100565.91;5054401;28;19917;-87
2024/03/26 03:13:11;;;;;;;;;;;;;;;4.70;86.98;100565.50;5056796;28;19917;-86
2024/03/26 03:15:36;;;;;;;;;;;;;;;4.75;87.16;100572.81;5056362;28;20332;-87
2024/03/26 03:18:02;;;;;;;;;;;;;;;4.75;86.67;100564.84;5057917;28;19963;-87
2024/03/26 03:20:27;;;;;;;;;;;;;;;4.75;86.29;100570.16;5058907;28;19924;-86
2024/03/26 03:22:52;;;;;;;;;;;;;;;4.72;86.13;100557.31;5058845;28;20011;-86
2024/03/26 03:25:17;;;;;;;;;;;;;;;4.74;86.57;100564.03;5058838;28;19920;-87
2024/03/26 03:27:42;;;;;;;;;;;;;;;4.74;87.03;100564.03;5058584;28;19920;-86
2024/03/26 03:30:08;;;;;;;;;;;;;;;4.75;86.69;100557.69;5057343;28;20060;-86
2024/03/26 03:32:34;;;;;;;;;;;;;;;4.79;87.29;100566.03;5059312;28;20411;-87
2024/03/26 03:34:59;;;;;;;;;;;;;;;4.78;87.23;100556.44;5059302;28;19916;-86
2024/03/26 03:37:24;;;;;;;;;;;;;;;4.79;87.22;100550.09;5058206;28;19924;-88
2024/03/26 03:39:50;;;;;;;;;;;;;;;4.78;87.44;100545.81;5056266;28;20002;-87
2024/03/26 03:42:15;;;;;;;;;;;;;;;4.76;87.26;100555.84;5057696;28;19925;-87
2024/03/26 03:44:40;;;;;;;;;;;;;;;4.75;87.12;100554.22;5057120;28;19931;-88
2024/03/26 03:47:05;;;;;;;;;;;;;;;4.73;87.30;100553.63;5057247;28;19917;-87
2024/03/26 03:49:31;;;;;;;;;;;;;;;4.75;87.22;100551.56;5057685;28;19916;-87
2024/03/26 03:52:03;;;;;;;;;;;;;;;4.75;87.60;100546.25;5058256;28;19920;-87
2024/03/26 03:54:28;;;;;;;;;;;;;;;4.75;87.75;100551.56;5057078;28;19924;-86
2024/03/26 03:56:54;;;;;;;;;;;;;;;4.74;87.95;100545.44;5058598;28;19928;-87
2024/03/26 03:59:19;;;;;;;;;;;;;;;4.73;88.18;100541.16;5059195;28;19935;-86
2024/03/26 04:01:44;;;;;;;;;;;;;;;4.73;88.44;100546.47;5058725;28;19924;-87
2024/03/26 04:04:09;;;;;;;;;;;;;;;4.73;88.04;100540.34;5058338;28;19920;-87
2024/03/26 04:06:35;;;;;;;;;;;;;;;4.72;88.52;100541.38;5057662;28;19916;-87
2024/03/26 04:09:00;;;;;;;;;;;;;;;4.71;88.66;100550.38;5057347;28;20281;-87
2024/03/26 04:11:25;;;;;;;;;;;;;;;4.71;88.63;100551.19;5057688;28;19978;-86
2024/03/26 04:13:50;;;;;;;;;;;;;;;4.70;88.53;100557.53;5056016;28;19920;-86
2024/03/26 04:16:15;;;;;;;;;;;;;;;4.70;88.83;100556.72;5057519;28;19935;-87
2024/03/26 04:18:41;;;;;;;;;;;;;;;4.69;89.37;100557.75;5057110;28;19924;-86
2024/03/26 04:21:06;;;;;;;;;;;;;;;4.69;89.69;100547.13;5059065;28;19921;-87
2024/03/26 04:23:31;;;;;;;;;;;;;;;4.68;89.10;100551.63;5056418;28;19924;-86
2024/03/26 04:25:57;;;;;;;;;;;;;;;4.66;89.45;100548.34;5055495;28;19964;-87
2024/03/26 04:28:22;;;;;;;;;;;;;;;4.62;88.93;100544.50;5056003;28;19967;-87
2024/03/26 04:30:48;;;;;;;;;;;;;;;4.59;89.06;100546.75;5056703;28;19924;-87
2024/03/26 04:33:13;;;;;;;;;;;;;;;4.58;89.49;100545.97;5058225;28;19928;-87
2024/03/26 04:35:38;;;;;;;;;;;;;;;4.57;89.22;100551.47;5058049;28;20560;-87
2024/03/26 04:38:04;;;;;;;;;;;;;;;4.53;88.84;100553.75;5056854;28;19924;-87
2024/03/26 04:40:29;;;;;;;;;;;;;;;4.49;88.98;100553.38;5056390;28;19925;-88
2024/03/26 04:42:54;;;;;;;;;;;;;;;4.46;88.56;100547.66;5056574;28;19924;-87
2024/03/26 04:45:19;;;;;;;;;;;;;;;4.44;88.85;100555.00;5057627;28;19968;-87
2024/03/26 04:47:44;;;;;;;;;;;;;;;4.41;89.33;100556.25;5056873;28;19921;-88
2024/03/26 04:50:10;;;;;;;;;;;;;;;4.38;89.42;100548.72;5058520;28;19944;-87
2024/03/26 04:52:35;;;;;;;;;;;;;;;4.38;89.17;100556.69;5056862;28;20411;-87
2024/03/26 04:55:00;;;;;;;;;;;;;;;4.40;90.01;100553.81;5056703;28;20380;-87
2024/03/26 04:57:26;;;;;;;;;;;;;;;4.39;90.01;100558.31;5059976;28;20015;-87
2024/03/26 04:59:51;;;;;;;;;;;;;;;4.37;89.61;100555.06;5057923;28;19970;-86
2024/03/26 05:02:16;;;;;;;;;;;;;;;4.36;89.31;100558.72;5055287;28;19920;-87
2024/03/26 05:04:41;;;;;;;;;;;;;;;4.32;89.49;100560.19;5055198;28;19935;-87
2024/03/26 05:07:07;;;;;;;;;;;;;;;4.31;89.18;100558.56;5057687;28;19948;-87
2024/03/26 05:09:32;;;;;;;;;;;;;;;4.27;89.25;100552.03;5056798;28;20388;-87
2024/03/26 05:11:57;;;;;;;;;;;;;;;4.26;89.58;100550.41;5057113;28;19931;-88
2024/03/26 05:14:22;;;;;;;;;;;;;;;4.23;89.15;100551.66;5058647;28;19977;-88
2024/03/26 05:16:47;;;;;;;;;;;;;;;4.22;89.21;100554.50;5058640;28;19927;-87
2024/03/26 05:19:13;;;;;;;;;;;;;;;4.19;89.46;100544.34;5058342;28;19928;-87
2024/03/26 05:21:38;;;;;;;;;;;;;;;4.18;89.60;100546.16;5055486;28;19927;-88
2024/03/26 05:24:04;;;;;;;;;;;;;;;4.19;89.88;100544.34;5057535;28;19931;-88
2024/03/26 05:26:29;;;;;;;;;;;;;;;4.21;90.33;100547.56;5058848;28;19939;-87
2024/03/26 05:28:54;;;;;;;;;;;;;;;4.24;90.56;100549.81;5059241;28;19921;-87
2024/03/26 05:31:20;;;;;;;;;;;;;;;4.27;90.47;100549.38;5055795;28;19917;-87
2024/03/26 05:33:46;;;;;;;;;;;;;;;4.30;90.45;100548.94;5062487;28;19917;-88
2024/03/26 05:36:12;;;;;;;;;;;;;;;4.34;91.03;100550.19;5060114;28;19966;-85
2024/03/26 05:38:37;;;;;;;;;;;;;;;4.40;91.21;100543.19;5062342;28;19924;-87
2024/03/26 05:41:02;;;;;;;;;;;;;;;4.45;91.54;100541.53;5057084;28;19916;-88
2024/03/26 05:43:28;;;;;;;;;;;;;;;4.51;91.80;100539.88;5063405;28;19951;-87
2024/03/26 05:45:53;;;;;;;;;;;;;;;4.57;91.84;100540.88;5060369;28;19928;-87
2024/03/26 05:48:18;;;;;;;;;;;;;;;4.63;92.21;100534.69;5057313;28;19929;-87
2024/03/26 05:50:43;;;;;;;;;;;;;;;4.69;92.09;100537.31;5056445;28;20310;-87
2024/03/26 05:53:08;;;;;;;;;;;;;;;4.75;91.93;100536.44;5059185;28;19951;-87
2024/03/26 05:55:33;;;;;;;;;;;;;;;4.81;92.37;100529.47;5061004;28;19920;-87
2024/03/26 05:57:59;;;;;;;;;;;;;;;4.86;92.31;100537.63;5058412;28;19977;-86
2024/03/26 06:00:24;;;;;;;;;;;;;;;4.92;92.86;100527.97;5057894;28;19923;-86
2024/03/26 06:02:49;;;;;;;;;;;;;;;4.97;92.58;100531.59;5063069;28;19920;-86
2024/03/26 06:05:14;;;;;;;;;;;;;;;5.03;92.92;100533.41;5055882;28;19917;-87
2024/03/26 06:07:39;;;;;;;;;;;;;;;5.09;92.79;100532.53;5057681;28;19917;-87
2024/03/26 06:10:05;;;;;;;;;;;;;;;5.15;92.95;100522.88;5055311;28;20021;-91
2024/03/26 06:12:30;;;;;;;;;;;;;;;5.23;93.29;100527.09;5054908;28;20067;-89
2024/03/26 06:14:55;;;;;;;;;;;;;;;5.30;93.76;100526.00;5056180;28;19920;-87
2024/03/26 06:17:20;;;;;;;;;;;;;;;5.38;93.53;100516.94;5063144;28;19924;-87
2024/03/26 06:19:46;;;;;;;;;;;;;;;5.45;94.17;100523.00;5055060;28;19912;-86
2024/03/26 06:22:11;;;;;;;;;;;;;;;5.55;93.97;100531.25;5050905;28;20580;-87
2024/03/26 06:24:37;;;;;;;;;;;;;;;5.62;94.10;100536.53;5056483;28;20296;-87
2024/03/26 06:27:02;;;;;;;;;;;;;;;5.71;94.04;100530.69;5053462;28;19939;-87
2024/03/26 06:29:27;;;;;;;;;;;;;;;5.79;94.32;100532.25;5050437;28;19920;-87
2024/03/26 06:31:52;;;;;;;;;;;;;;;5.87;94.38;100529.28;5057152;28;19924;-87
2024/03/26 06:34:18;;;;;;;;;;;;;;;5.96;94.50;100524.53;5055896;28;19925;-87
2024/03/26 06:36:43;;;;;;;;;;;;;;;6.05;94.56;100526.66;5054060;28;19916;-87
2024/03/26 06:39:09;;;;;;;;;;;;;;;6.15;95.03;100530.63;5057957;28;19923;-94
2024/03/26 06:41:34;;;;;;;;;;;;;;;6.21;94.11;100527.88;5061279;28;19916;-89
2024/03/26 06:43:59;;;;;;;;;;;;;;;6.26;93.98;100525.34;5062318;28;19924;-89
2024/03/26 06:46:24;;;;;;;;;;;;;;;6.30;94.40;100523.88;5061392;28;19916;-87
2024/03/26 06:48:50;;;;;;;;;;;;;;;6.38;94.79;100519.28;5061001;28;19938;-88
2024/03/26 06:51:15;;;;;;;;;;;;;;;6.48;95.53;100514.22;5063087;28;19912;-88
2024/03/26 06:53:40;;;;;;;;;;;;;;;6.57;95.85;100523.50;5061894;28;19959;-89
2024/03/26 06:56:06;;;;;;;;;;;;;;;6.68;96.04;100513.94;5062230;28;19917;-89
2024/03/26 06:58:31;;;;;;;;;;;;;;;6.79;95.66;100510.47;5060491;28;20391;-89
2024/03/26 07:00:56;;;;;;;;;;;;;;;6.89;95.60;100506.22;5061090;28;19931;-88
2024/03/26 07:03:23;;;;;;;;;;;;;;;7.00;95.84;100504.59;5059148;28;19927;-89
2024/03/26 07:05:49;;;;;;;;;;;;;;;7.10;95.53;100502.19;5066665;28;19924;-89
2024/03/26 07:08:14;;;;;;;;;;;;;;;7.20;95.48;100498.97;5058153;28;20469;-89
2024/03/26 07:10:39;;;;;;;;;;;;;;;7.29;95.46;100494.88;5057040;28;19917;-89
2024/03/26 07:13:05;;;;;;;;;;;;;;;7.42;95.66;100494.66;5057263;28;20003;-90
2024/03/26 07:15:30;;;;;;;;;;;;;;;7.52;95.63;100483.38;5058804;28;20058;-89
2024/03/26 07:17:55;;;;;;;;;;;;;;;7.64;95.59;100473.53;5056785;28;20288;-89
2024/03/26 07:20:21;;;;;;;;;;;;;;;7.73;95.45;100474.78;5055779;28;19917;-89
2024/03/26 07:22:47;;;;;;;;;;;;;;;7.85;95.74;100472.06;5060955;28;19920;-90
2024/03/26 07:25:12;;;;;;;;;;;;;;;7.95;94.97;100474.16;5063714;28;19968;-88
2024/03/26 07:27:37;;;;;;;;;;;;;;;8.06;95.30;100473.28;5053830;28;21139;-88
2024/03/26 07:30:04;;;;;;;;;;;;;;;8.16;95.28;100473.47;5064298;28;20368;-90
2024/03/26 07:32:29;;;;;;;;;;;;;;;8.26;95.10;100478.19;5063361;28;19955;-92
2024/03/26 07:34:54;;;;;;;;;;;;;;;8.31;94.57;100478.28;5061073;28;19948;-90
2024/03/26 07:37:19;;;;;;;;;;;;;;;8.39;94.84;100475.25;5055092;28;20377;-91
2024/03/26 07:39:45;;;;;;;;;;;;;;;8.47;94.84;100469.53;5057902;28;19923;-92
2024/03/26 07:42:10;;;;;;;;;;;;;;;8.57;94.60;100468.88;5057915;28;19930;-91
2024/03/26 07:44:35;;;;;;;;;;;;;;;8.67;94.57;100469.88;5074021;28;19921;-92
2024/03/26 07:47:01;;;;;;;;;;;;;;;8.77;94.57;100464.69;5061328;28;19921;-92
2024/03/26 07:49:26;;;;;;;;;;;;;;;8.88;94.44;100463.00;5058100;28;19938;-90
2024/03/26 07:51:52;;;;;;;;;;;;;;;8.98;94.41;100462.34;5057101;28;20487;-90
2024/03/26 07:54:19;;;;;;;;;;;;;;;9.09;93.55;100456.09;5053973;28;20400;-92
2024/03/26 07:56:45;;;;;;;;;;;;;;;9.20;93.41;100452.53;5055803;28;19920;-93
2024/03/26 07:59:10;;;;;;;;;;;;;;;9.33;92.94;100457.50;5060308;28;19913;-92
2024/03/26 08:01:35;;;;;;;;;;;;;;;9.41;92.85;100455.47;5060948;28;19952;-93
2024/03/26 08:04:00;;;;;;;;;;;;;;;9.50;92.69;100445.94;5062379;28;20300;-92
2024/03/26 08:06:25;;;;;;;;;;;;;;;9.64;92.62;100448.00;5061692;28;20343;-92
2024/03/26 08:08:51;;;;;;;;;;;;;;;9.79;92.15;100454.63;5060400;28;19927;-92
2024/03/26 08:11:17;;;;;;;;;;;;;;;9.90;92.28;100454.50;5064671;28;20369;-93
2024/03/26 08:13:42;;;;;;;;;;;;;;;10.05;91.95;100447.66;5066108;28;20011;-93
2024/03/26 08:16:08;;;;;;;;;;;;;;;10.16;91.89;100444.03;5061403;28;19920;-93
2024/03/26 08:18:33;;;;;;;;;;;;;;;10.29;91.65;100449.84;5067628;28;19939;-92
2024/03/26 08:21:00;;;;;;;;;;;;;;;10.44;91.18;100449.19;5064290;28;19917;-91
2024/03/26 08:23:25;;;;;;;;;;;;;;;10.57;90.47;100440.69;5070784;28;19929;-92
2024/03/26 08:25:50;;;;;;;;;;;;;;;10.73;90.14;100438.16;5067081;28;19917;-93
2024/03/26 08:28:16;;;;;;;;;;;;;;;10.85;89.79;100436.91;5062628;28;20055;-92
2024/03/26 08:30:41;;;;;;;;;;;;;;;10.95;89.18;100432.66;5062140;28;20303;-91
2024/03/26 08:33:07;;;;;;;;;;;;;;;11.08;89.20;100435.72;5058872;28;19920;-92
2024/03/26 08:35:37;;;;;;;;;;;;;;;11.17;88.83;100423.47;5060026;28;19923;-93
2024/03/26 08:38:03;;;;;;;;;;;;;;;11.31;89.09;100431.84;5065738;28;20001;-91
2024/03/26 08:40:28;;;;;;;;;;;;;;;11.42;88.18;100420.09;5064762;28;20007;-92
2024/03/26 08:42:53;;;;;;;;;;;;;;;11.54;87.49;100430.63;5068166;28;19942;-91
2024/03/26 08:45:18;;;;;;;;;;;;;;;11.61;86.89;100419.63;5068452;28;19916;-92
2024/03/26 08:47:44;;;;;;;;;;;;;;;11.65;85.62;100426.88;5064679;28;19928;-94
2024/03/26 08:50:12;;;;;;;;;;;;;;;11.73;86.32;100421.03;5057355;28;19919;-92
2024/03/26 08:52:37;;;;;;;;;;;;;;;11.81;86.10;100417.03;5062396;28;19912;-92
2024/03/26 08:55:03;;;;;;;;;;;;;;;11.93;85.21;100419.50;5072025;28;19917;-92
2024/03/26 08:57:29;;;;;;;;;;;;;;;11.98;83.61;100411.44;5063519;28;20006;-92
2024/03/26 08:59:54;;;;;;;;;;;;;;;12.08;84.39;100414.16;5062942;28;19917;-92
2024/03/26 09:02:19;;;;;;;;;;;;;;;12.19;83.42;100407.72;5070416;28;19948;-94
2024/03/26 09:04:45;;;;;;;;;;;;;;;12.29;82.17;100404.25;5062960;28;20365;-93
2024/03/26 09:07:10;;;;;;;;;;;;;;;12.40;82.06;100398.63;5061721;28;19917;-92
2024/03/26 09:09:35;;;;;;;;;;;;;;;12.55;82.53;100391.63;5058540;28;19920;-93
2024/03/26 09:12:00;;;;;;;;;;;;;;;12.70;81.85;100388.91;5063598;28;19917;-95
2024/03/26 09:14:25;;;;;;;;;;;;;;;12.87;82.66;100380.56;5063240;28;20047;-94
2024/03/26 09:16:51;;;;;;;;;;;;;;;13.03;81.66;100371.38;5063999;28;19979;-93
2024/03/26 09:19:16;;;;;;;;;;;;;;;13.19;81.75;100364.91;5059352;28;19928;-93
2024/03/26 09:21:42;;;;;;;;;;;;;;;13.36;81.45;100364.59;5064257;28;19952;-91
2024/03/26 09:24:07;;;;;;;;;;;;;;;13.50;80.50;100362.91;5063686;28;19920;-90
2024/03/26 09:26:33;;;;;;;;;;;;;;;13.58;77.46;100358.81;5061601;28;20513;-92
2024/03/26 09:28:58;;;;;;;;;;;;;;;13.68;78.18;100348.03;5062882;28;20000;-94
2024/03/26 09:31:23;;;;;;;;;;;;;;;13.82;77.86;100348.19;5064993;28;19917;-95
2024/03/26 09:33:49;;;;;;;;;;;;;;;13.94;76.66;100345.97;5057693;28;20304;-95
2024/03/26 09:36:14;;;;;;;;;;;;;;;14.03;75.83;100344.28;5055636;28;19928;-93
2024/03/26 09:38:39;;;;;;;;;;;;;;;14.12;75.24;100339.09;5058635;28;19920;-94
2024/03/26 09:41:04;;;;;;;;;;;;;;;14.14;72.80;100329.66;5060777;28;19917;-92
2024/03/26 09:43:30;;;;;;;;;;;;;;;14.20;72.29;100331.22;5059222;28;19921;-91
2024/03/26 09:45:56;;;;;;;;;;;;;;;14.30;72.72;100327.63;5059519;28;19917;-93
2024/03/26 09:48:21;;;;;;;;;;;;;;;14.43;72.34;100331.56;5060450;28;19920;-91
2024/03/26 09:50:47;;;;;;;;;;;;;;;14.54;71.05;100321.50;5056500;28;19917;-95
2024/03/26 09:53:16;;;;;;;;;;;;;;;14.63;70.38;100322.50;5062537;28;20054;-94
2024/03/26 09:55:41;;;;;;;;;;;;;;;14.71;70.06;100313.78;5062793;28;20003;-91
2024/03/26 09:58:07;;;;;;;;;;;;;;;14.79;70.29;100308.59;5062548;28;20047;-93
2024/03/26 10:00:33;;;;;;;;;;;;;;;14.89;68.39;100304.97;5067691;28;19923;-90
2024/03/26 10:02:59;;;;;;;;;;;;;;;15.01;69.34;100301.88;5056570;28;20304;-91
2024/03/26 10:05:25;;;;;;;;;;;;;;;15.07;66.65;100306.09;5055968;28;19924;-95
2024/03/26 10:07:50;;;;;;;;;;;;;;;15.09;65.66;100285.06;5067015;28;20483;-94
2024/03/26 10:10:15;;;;;;;;;;;;;;;15.14;65.56;100286.88;5062190;28;20345;-94
2024/03/26 10:12:41;;;;;;;;;;;;;;;15.20;64.49;100286.50;5059875;28;19971;-92
2024/03/26 10:15:07;;;;;;;;;;;;;;;15.24;62.45;100276.75;5063094;28;19952;-96
2024/03/26 10:17:33;;;;;;;;;;;;;;;15.29;63.27;100274.00;5062841;28;19921;-94
2024/03/26 10:19:58;;;;;;;;;;;;;;;15.40;64.83;100261.94;5058680;28;20396;-95
2024/03/26 10:22:23;;;;;;;;;;;;;;;15.47;63.39;100260.78;5060151;28;19913;-94
2024/03/26 10:24:48;;;;;;;;;;;;;;;15.56;63.59;100256.31;5067738;28;19935;-90
2024/03/26 10:27:14;;;;;;;;;;;;;;;15.65;62.75;100255.41;5062171;28;19971;-92
2024/03/26 10:29:39;;;;;;;;;;;;;;;15.67;61.38;100241.63;5059697;28;20717;-94
2024/03/26 10:32:04;;;;;;;;;;;;;;;15.73;61.90;100242.34;5054358;28;19944;-93
2024/03/26 10:34:32;;;;;;;;;;;;;;;15.85;62.19;100245.38;5062757;28;19966;-93
2024/03/26 10:36:59;;;;;;;;;;;;;;;16.00;62.70;100245.13;5065944;28;19970;-91
2024/03/26 10:39:26;;;;;;;;;;;;;;;16.11;61.04;100240.34;5058236;28;19916;-92
2024/03/26 10:41:52;;;;;;;;;;;;;;;16.19;60.31;100242.38;5055713;28;20031;-91
2024/03/26 10:44:17;;;;;;;;;;;;;;;16.18;58.83;100241.56;5063096;28;20003;-92
2024/03/26 10:46:46;;;;;;;;;;;;;;;16.17;58.74;100245.38;5070510;28;22025;-90
2024/03/26 10:49:12;;;;;;;;;;;;;;;16.22;59.51;100225.56;5062824;28;19997;-90
2024/03/26 10:51:38;;;;;;;;;;;;;;;16.35;59.69;100222.09;5058770;28;19959;-91
2024/03/26 10:54:04;;;;;;;;;;;;;;;16.49;59.46;100219.38;5062017;28;19951;-93
2024/03/26 10:56:31;;;;;;;;;;;;;;;16.55;57.88;100220.88;5063955;28;19917;-95
2024/03/26 10:58:57;;;;;;;;;;;;;;;16.59;57.06;100214.56;5058464;28;19917;-92
2024/03/26 11:01:24;;;;;;;;;;;;;;;16.60;56.70;100215.38;5065865;28;19962;-91
2024/03/26 11:03:49;;;;;;;;;;;;;;;16.62;57.40;100218.56;5061535;28;19924;-95
2024/03/26 11:06:18;;;;;;;;;;;;;;;16.68;57.01;100208.47;5057777;28;19978;-91
2024/03/26 11:08:43;;;;;;;;;;;;;;;16.75;57.09;100200.78;5064478;28;19917;-90
2024/03/26 11:11:12;;;;;;;;;;;;;;;16.80;57.21;100197.97;5062967;28;19923;-91
2024/03/26 11:13:38;;;;;;;;;;;;;;;16.86;56.87;100196.72;5056112;28;19912;-93
2024/03/26 11:16:08;;;;;;;;;;;;;;;16.92;57.14;100198.25;5058768;28;19954;-91
2024/03/26 11:18:34;;;;;;;;;;;;;;;16.99;57.43;100179.69;5055761;28;19916;-90
2024/03/26 11:21:03;;;;;;;;;;;;;;;17.07;56.89;100170.84;5064371;28;19921;-88
2024/03/26 11:23:30;;;;;;;;;;;;;;;17.18;56.22;100164.09;5057855;28;19988;-90
2024/03/26 11:25:56;;;;;;;;;;;;;;;17.28;56.26;100164.97;5064136;28;19920;-92
2024/03/26 11:28:21;;;;;;;;;;;;;;;17.37;55.58;100168.53;5059182;28;19924;-92
2024/03/26 11:30:47;;;;;;;;;;;;;;;17.45;54.91;100167.81;5064693;28;19916;-91
2024/03/26 11:33:21;;;;;;;;;;;;;;;17.53;55.17;100157.03;5070015;28;19916;-92
2024/03/26 11:35:46;;;;;;;;;;;;;;;17.61;54.11;100158.22;5069116;28;19922;-91
2024/03/26 11:38:12;;;;;;;;;;;;;;;17.65;53.95;100151.06;5070863;28;19913;-92
2024/03/26 11:40:37;;;;;;;;;;;;;;;17.73;53.31;100139.50;5064679;28;20377;-88
2024/03/26 11:43:02;;;;;;;;;;;;;;;17.73;52.19;100135.97;5061740;28;19931;-87
2024/03/26 11:45:27;;;;;;;;;;;;;;;17.80;53.07;100122.81;5066849;28;19967;-92
2024/03/26 11:47:53;;;;;;;;;;;;;;;17.83;51.83;100118.66;5066611;28;20194;-94
2024/03/26 11:50:18;;;;;;;;;;;;;;;17.88;52.09;100118.53;5065231;28;19917;-93
2024/03/26 11:52:43;;;;;;;;;;;;;;;17.95;52.84;100118.88;5062925;28;20412;-91
2024/03/26 11:55:09;;;;;;;;;;;;;;;18.02;52.35;100109.19;5058737;28;19959;-92
2024/03/26 11:57:37;;;;;;;;;;;;;;;18.12;52.38;100116.22;5065174;28;19955;-90
2024/03/26 12:00:04;;;;;;;;;;;;;;;18.17;51.77;100099.84;5060279;28;19924;-94
2024/03/26 12:02:29;;;;;;;;;;;;;;;18.19;51.09;100097.63;5064851;28;19916;-91
2024/03/26 12:04:55;;;;;;;;;;;;;;;18.20;51.26;100082.94;5064439;28;20576;-93
2024/03/26 12:07:22;;;;;;;;;;;;;;;18.27;51.90;100083.28;5071354;28;20382;-96
2024/03/26 12:09:47;;;;;;;;;;;;;;;18.30;51.08;100073.69;5064665;28;19924;-93
2024/03/26 12:12:13;;;;;;;;;;;;;;;18.27;50.72;100067.00;5062888;28;19920;-94
2024/03/26 12:14:38;;;;;;;;;;;;;;;18.26;50.81;100059.19;5061330;28;19924;-94
2024/03/26 12:17:04;;;;;;;;;;;;;;;18.25;51.42;100055.69;5061534;28;19916;-95
2024/03/26 12:19:29;;;;;;;;;;;;;;;18.19;51.33;100054.22;5064031;28;19920;-94
2024/03/26 12:21:54;;;;;;;;;;;;;;;18.07;50.52;100045.91;5061913;28;19923;-92
2024/03/26 12:24:19;;;;;;;;;;;;;;;18.02;50.71;100052.28;5064573;28;19923;-96
2024/03/26 12:26:45;;;;;;;;;;;;;;;18.03;50.47;100044.94;5063832;28;19939;-93
2024/03/26 12:29:11;;;;;;;;;;;;;;;18.04;50.98;100052.75;5061834;28;19920;-92
2024/03/26 12:31:36;;;;;;;;;;;;;;;18.08;52.03;100047.50;5055587;28;19921;-95
2024/03/26 12:34:11;;;;;;;;;;;;;;;18.13;51.63;100055.47;5059924;28;20003;-93